sensor_id;sensor_type;location;lat;lon;timestamp;pressure;altitude;pressure_sealevel;temperature;humidity
56992;BME280;42885;49.754;18.636;2022-11-13T00:00:53;99844.98;;;3.02;100.00
56992;BME280;42885;49.754;18.636;2022-11-13T00:03:42;99841.09;;;3.07;100.00
56992;BME280;42885;49.754;18.636;2022-11-13T00:06:30;99834.15;;;3.13;100.00
56992;BME280;42885;49.754;18.636;2022-11-13T00:09:19;99826.34;;;3.26;100.00
56992;BME280;42885;49.754;18.636;2022-11-13T00:12:07;99827.19;;;3.26;100.00
56992;BME280;42885;49.754;18.636;2022-11-13T00:14:56;99835.06;;;3.01;100.00
56992;BME280;42885;49.754;18.636;2022-11-13T00:17:45;99839.34;;;3.09;100.00
56992;BME280;42885;49.754;18.636;2022-11-13T00:20:34;99831.72;;;2.73;100.00
56992;BME280;42885;49.754;18.636;2022-11-13T00:23:23;99832.54;;;2.87;100.00
56992;BME280;42885;49.754;18.636;2022-11-13T00:26:15;99826.34;;;3.26;100.00
56992;BME280;42885;49.754;18.636;2022-11-13T00:29:03;99826.34;;;3.26;100.00
56992;BME280;42885;49.754;18.636;2022-11-13T00:31:52;99835.89;;;3.11;100.00
56992;BME280;42885;49.754;18.636;2022-11-13T00:34:41;99829.95;;;2.89;100.00
56992;BME280;42885;49.754;18.636;2022-11-13T00:37:29;99829.12;;;2.81;100.00
56992;BME280;42885;49.754;18.636;2022-11-13T00:40:18;99826.08;;;2.89;100.00
56992;BME280;42885;49.754;18.636;2022-11-13T00:43:07;99829.45;;;3.08;100.00
56992;BME280;42885;49.754;18.636;2022-11-13T00:45:56;99823.75;;;3.23;100.00
56992;BME280;42885;49.754;18.636;2022-11-13T00:48:45;99821.73;;;2.94;100.00
56992;BME280;42885;49.754;18.636;2022-11-13T00:51:34;99821.33;;;2.90;100.00
56992;BME280;42885;49.754;18.636;2022-11-13T00:54:22;99823.98;;;2.68;100.00
56992;BME280;42885;49.754;18.636;2022-11-13T00:57:11;99824.88;;;2.58;100.00
56992;BME280;42885;49.754;18.636;2022-11-13T01:00:00;99827.39;;;2.83;100.00
56992;BME280;42885;49.754;18.636;2022-11-13T01:02:48;99815.45;;;2.43;100.00
56992;BME280;42885;49.754;18.636;2022-11-13T01:05:39;99809.87;;;2.18;100.00
56992;BME280;42885;49.754;18.636;2022-11-13T01:08:28;99806.04;;;2.08;100.00
56992;BME280;42885;49.754;18.636;2022-11-13T01:11:19;99812.91;;;2.24;100.00
56992;BME280;42885;49.754;18.636;2022-11-13T01:14:08;99808.53;;;2.50;100.00
56992;BME280;42885;49.754;18.636;2022-11-13T01:16:57;99805.55;;;2.45;100.00
56992;BME280;42885;49.754;18.636;2022-11-13T01:19:46;99804.23;;;2.42;100.00
56992;BME280;42885;49.754;18.636;2022-11-13T01:22:34;99794.78;;;2.35;100.00
56992;BME280;42885;49.754;18.636;2022-11-13T01:25:23;99798.64;;;2.47;100.00
56992;BME280;42885;49.754;18.636;2022-11-13T01:28:11;99791.78;;;2.37;100.00
56992;BME280;42885;49.754;18.636;2022-11-13T01:31:03;99788.33;;;2.38;100.00
56992;BME280;42885;49.754;18.636;2022-11-13T01:33:50;99793.04;;;2.45;100.00
56992;BME280;42885;49.754;18.636;2022-11-13T01:36:39;99795.15;;;2.66;100.00
56992;BME280;42885;49.754;18.636;2022-11-13T01:39:27;99797.77;;;2.47;100.00
56992;BME280;42885;49.754;18.636;2022-11-13T01:42:16;99789.19;;;2.42;100.00
56992;BME280;42885;49.754;18.636;2022-11-13T01:48:38;99789.66;;;2.16;100.00
56992;BME280;42885;49.754;18.636;2022-11-13T01:51:30;99786.25;;;1.89;100.00
56992;BME280;42885;49.754;18.636;2022-11-13T01:54:27;99784.08;;;1.69;100.00
56992;BME280;42885;49.754;18.636;2022-11-13T01:57:16;99782.36;;;1.82;100.00
56992;BME280;42885;49.754;18.636;2022-11-13T02:00:09;99778.03;;;2.24;100.00
56992;BME280;42885;49.754;18.636;2022-11-13T02:02:58;99784.88;;;2.33;100.00
56992;BME280;42885;49.754;18.636;2022-11-13T02:05:47;99775.82;;;2.36;100.00
56992;BME280;42885;49.754;18.636;2022-11-13T02:08:36;99775.37;;;2.54;100.00
56992;BME280;42885;49.754;18.636;2022-11-13T02:11:26;99776.13;;;2.73;100.00
56992;BME280;42885;49.754;18.636;2022-11-13T02:14:15;99770.19;;;2.52;100.00
56992;BME280;42885;49.754;18.636;2022-11-13T02:17:07;99774.91;;;2.60;100.00
56992;BME280;42885;49.754;18.636;2022-11-13T02:19:58;99777.92;;;2.63;100.00
56992;BME280;42885;49.754;18.636;2022-11-13T02:23:11;99773.65;;;2.51;100.00
56992;BME280;42885;49.754;18.636;2022-11-13T02:25:58;99773.70;;;2.31;100.00
56992;BME280;42885;49.754;18.636;2022-11-13T02:28:46;99775.00;;;2.18;100.00
56992;BME280;42885;49.754;18.636;2022-11-13T02:31:35;99775.44;;;2.21;100.00
56992;BME280;42885;49.754;18.636;2022-11-13T02:34:24;99782.36;;;2.10;100.00
56992;BME280;42885;49.754;18.636;2022-11-13T02:37:12;99782.81;;;1.76;100.00
56992;BME280;42885;49.754;18.636;2022-11-13T02:40:01;99786.23;;;1.97;100.00
56992;BME280;42885;49.754;18.636;2022-11-13T02:42:50;99785.81;;;2.04;100.00
56992;BME280;42885;49.754;18.636;2022-11-13T02:45:38;99785.34;;;2.18;100.00
56992;BME280;42885;49.754;18.636;2022-11-13T02:48:27;99781.48;;;2.09;100.00
56992;BME280;42885;49.754;18.636;2022-11-13T02:51:15;99787.06;;;2.23;100.00
56992;BME280;42885;49.754;18.636;2022-11-13T02:54:04;99788.78;;;2.30;100.00
56992;BME280;42885;49.754;18.636;2022-11-13T02:56:53;99788.33;;;2.38;100.00
56992;BME280;42885;49.754;18.636;2022-11-13T02:59:42;99784.41;;;2.44;100.00
56992;BME280;42885;49.754;18.636;2022-11-13T03:02:30;99786.63;;;2.26;100.00
56992;BME280;42885;49.754;18.636;2022-11-13T03:05:19;99789.25;;;2.06;100.00
56992;BME280;42885;49.754;18.636;2022-11-13T03:08:07;99783.22;;;1.91;100.00
56992;BME280;42885;49.754;18.636;2022-11-13T03:10:56;99782.77;;;2.22;100.00
56992;BME280;42885;49.754;18.636;2022-11-13T03:13:45;99785.79;;;1.95;100.00
56992;BME280;42885;49.754;18.636;2022-11-13T03:16:34;99781.50;;;1.73;100.00
56992;BME280;42885;49.754;18.636;2022-11-13T03:19:23;99783.23;;;1.67;100.00
56992;BME280;42885;49.754;18.636;2022-11-13T03:22:11;99783.22;;;1.85;100.00
56992;BME280;42885;49.754;18.636;2022-11-13T03:25:00;99786.66;;;2.11;100.00
56992;BME280;42885;49.754;18.636;2022-11-13T03:27:48;99776.75;;;2.13;100.00
56992;BME280;42885;49.754;18.636;2022-11-13T03:30:37;99774.14;;;2.29;100.00
56992;BME280;42885;49.754;18.636;2022-11-13T03:33:27;99774.14;;;2.29;100.00
56992;BME280;42885;49.754;18.636;2022-11-13T03:36:16;99770.74;;;2.05;100.00
56992;BME280;42885;49.754;18.636;2022-11-13T03:39:04;99773.31;;;2.08;100.00
56992;BME280;42885;49.754;18.636;2022-11-13T03:41:53;99773.33;;;1.68;100.00
56992;BME280;42885;49.754;18.636;2022-11-13T03:44:41;99772.03;;;1.88;100.00
56992;BME280;42885;49.754;18.636;2022-11-13T03:47:30;99770.75;;;1.89;100.00
56992;BME280;42885;49.754;18.636;2022-11-13T03:50:19;99771.18;;;1.97;100.00
56992;BME280;42885;49.754;18.636;2022-11-13T03:53:08;99770.73;;;2.10;100.00
56992;BME280;42885;49.754;18.636;2022-11-13T03:55:58;99771.58;;;2.10;100.00
56992;BME280;42885;49.754;18.636;2022-11-13T03:58:46;99774.16;;;2.05;100.00
56992;BME280;42885;49.754;18.636;2022-11-13T04:01:35;99771.99;;;2.24;100.00
56992;BME280;42885;49.754;18.636;2022-11-13T04:04:23;99769.03;;;1.76;100.00
56992;BME280;42885;49.754;18.636;2022-11-13T04:07:12;99760.38;;;2.13;100.00
56992;BME280;42885;49.754;18.636;2022-11-13T04:10:00;99762.95;;;2.30;100.00
56992;BME280;42885;49.754;18.636;2022-11-13T04:12:49;99761.72;;;1.89;100.00
56992;BME280;42885;49.754;18.636;2022-11-13T04:15:38;99762.56;;;1.96;100.00
56992;BME280;42885;49.754;18.636;2022-11-13T04:18:27;99766.81;;;2.22;100.00
56992;BME280;42885;49.754;18.636;2022-11-13T04:21:15;99772.47;;;2.08;100.00
56992;BME280;42885;49.754;18.636;2022-11-13T04:24:04;99768.17;;;1.96;100.00
56992;BME280;42885;49.754;18.636;2022-11-13T04:26:54;99773.31;;;1.97;100.00
56992;BME280;42885;49.754;18.636;2022-11-13T04:29:43;99764.72;;;2.01;100.00
56992;BME280;42885;49.754;18.636;2022-11-13T04:32:32;99766.83;;;2.25;100.00
56992;BME280;42885;49.754;18.636;2022-11-13T04:35:21;99762.09;;;2.18;100.00
56992;BME280;42885;49.754;18.636;2022-11-13T04:38:09;99761.22;;;2.19;100.00
56992;BME280;42885;49.754;18.636;2022-11-13T04:40:58;99768.19;;;1.75;100.00
56992;BME280;42885;49.754;18.636;2022-11-13T04:44:04;99769.89;;;1.50;100.00
56992;BME280;42885;49.754;18.636;2022-11-13T04:46:53;99763.45;;;1.47;100.00
56992;BME280;42885;49.754;18.636;2022-11-13T04:49:42;99767.31;;;1.37;100.00
56992;BME280;42885;49.754;18.636;2022-11-13T04:52:30;99770.33;;;1.57;100.00
56992;BME280;42885;49.754;18.636;2022-11-13T04:55:19;99775.04;;;2.06;100.00
56992;BME280;42885;49.754;18.636;2022-11-13T04:58:08;99772.86;;;2.15;100.00
56992;BME280;42885;49.754;18.636;2022-11-13T05:00:56;99773.30;;;2.20;100.00
56992;BME280;42885;49.754;18.636;2022-11-13T05:03:45;99768.98;;;2.29;100.00
56992;BME280;42885;49.754;18.636;2022-11-13T05:06:33;99767.67;;;2.26;100.00
56992;BME280;42885;49.754;18.636;2022-11-13T05:09:22;99768.56;;;2.22;100.00
56992;BME280;42885;49.754;18.636;2022-11-13T05:12:11;99766.39;;;2.29;100.00
56992;BME280;42885;49.754;18.636;2022-11-13T05:15:00;99768.97;;;2.26;100.00
56992;BME280;42885;49.754;18.636;2022-11-13T05:17:49;99768.99;;;2.24;100.00
56992;BME280;42885;49.754;18.636;2022-11-13T05:20:38;99771.13;;;2.26;100.00
56992;BME280;42885;49.754;18.636;2022-11-13T05:23:26;99765.54;;;2.11;100.00
56992;BME280;42885;49.754;18.636;2022-11-13T05:26:15;99767.28;;;2.03;100.00
56992;BME280;42885;49.754;18.636;2022-11-13T05:29:04;99770.76;;;1.74;100.00
56992;BME280;42885;49.754;18.636;2022-11-13T05:31:53;99767.31;;;1.47;100.00
56992;BME280;42885;49.754;18.636;2022-11-13T05:34:41;99768.60;;;1.75;100.00
56992;BME280;42885;49.754;18.636;2022-11-13T05:37:30;99763.41;;;1.98;100.00
56992;BME280;42885;49.754;18.636;2022-11-13T05:40:19;99765.14;;;2.01;100.00
56992;BME280;42885;49.754;18.636;2022-11-13T05:43:07;99767.73;;;2.09;100.00
56992;BME280;42885;49.754;18.636;2022-11-13T05:46:08;99764.25;;;2.17;100.00
56992;BME280;42885;49.754;18.636;2022-11-13T05:48:55;99766.39;;;2.19;100.00
56992;BME280;42885;49.754;18.636;2022-11-13T05:51:45;99765.55;;;2.14;100.00
56992;BME280;42885;49.754;18.636;2022-11-13T05:54:34;99767.70;;;2.16;100.00
56992;BME280;42885;49.754;18.636;2022-11-13T05:57:22;99763.80;;;2.27;100.00
56992;BME280;42885;49.754;18.636;2022-11-13T06:00:11;99760.33;;;2.39;100.00
56992;BME280;42885;49.754;18.636;2022-11-13T06:03:00;99764.73;;;1.90;100.00
56992;BME280;42885;49.754;18.636;2022-11-13T06:05:49;99770.74;;;2.05;100.00
56992;BME280;42885;49.754;18.636;2022-11-13T06:08:38;99767.30;;;2.08;100.00
56992;BME280;42885;49.754;18.636;2022-11-13T06:11:28;99759.47;;;2.34;100.00
56992;BME280;42885;49.754;18.636;2022-11-13T06:14:17;99759.09;;;2.20;100.00
56992;BME280;42885;49.754;18.636;2022-11-13T06:17:05;99761.61;;;2.36;100.00
56992;BME280;42885;49.754;18.636;2022-11-13T06:19:54;99760.82;;;2.03;100.00
56992;BME280;42885;49.754;18.636;2022-11-13T06:22:43;99751.31;;;2.30;100.00
56992;BME280;42885;49.754;18.636;2022-11-13T06:25:32;99748.26;;;2.41;100.00
56992;BME280;42885;49.754;18.636;2022-11-13T06:28:20;99748.63;;;2.56;100.00
56992;BME280;42885;49.754;18.636;2022-11-13T06:31:15;99752.59;;;2.27;100.00
56992;BME280;42885;49.754;18.636;2022-11-13T06:34:04;99750.86;;;2.38;100.00
56992;BME280;42885;49.754;18.636;2022-11-13T06:36:53;99759.93;;;2.27;100.00
56992;BME280;42885;49.754;18.636;2022-11-13T06:39:42;99759.05;;;2.34;100.00
56992;BME280;42885;49.754;18.636;2022-11-13T06:42:30;99754.73;;;2.38;100.00
56992;BME280;42885;49.754;18.636;2022-11-13T06:45:19;99756.87;;;2.39;100.00
56992;BME280;42885;49.754;18.636;2022-11-13T06:48:08;99753.69;;;2.83;100.00
56992;BME280;42885;49.754;18.636;2022-11-13T06:51:07;99756.65;;;2.93;100.00
56992;BME280;42885;49.754;18.636;2022-11-13T06:53:52;99758.89;;;2.80;100.00
56992;BME280;42885;49.754;18.636;2022-11-13T06:56:40;99760.13;;;2.86;100.00
56992;BME280;42885;49.754;18.636;2022-11-13T06:59:30;99748.50;;;2.89;100.00
56992;BME280;42885;49.754;18.636;2022-11-13T07:02:19;99738.78;;;3.28;100.00
56992;BME280;42885;49.754;18.636;2022-11-13T07:05:08;99738.53;;;3.60;100.00
56992;BME280;42885;49.754;18.636;2022-11-13T07:07:56;99734.14;;;3.68;100.00
56992;BME280;42885;49.754;18.636;2022-11-13T07:10:53;99741.08;;;3.67;100.00
56992;BME280;42885;49.754;18.636;2022-11-13T07:13:42;99745.16;;;3.41;100.00
56992;BME280;42885;49.754;18.636;2022-11-13T07:16:31;99735.14;;;3.53;100.00
56992;BME280;42885;49.754;18.636;2022-11-13T07:19:20;99739.48;;;3.49;100.00
56992;BME280;42885;49.754;18.636;2022-11-13T07:22:08;99736.55;;;3.91;100.00
56992;BME280;42885;49.754;18.636;2022-11-13T07:24:57;99735.52;;;4.08;100.00
56992;BME280;42885;49.754;18.636;2022-11-13T07:27:46;99739.92;;;3.98;100.00
56992;BME280;42885;49.754;18.636;2022-11-13T07:30:35;99727.97;;;4.26;100.00
56992;BME280;42885;49.754;18.636;2022-11-13T07:33:23;99727.08;;;4.30;100.00
56992;BME280;42885;49.754;18.636;2022-11-13T07:36:12;99721.31;;;4.41;100.00
56992;BME280;42885;49.754;18.636;2022-11-13T07:39:00;99717.48;;;4.38;100.00
56992;BME280;42885;49.754;18.636;2022-11-13T07:41:49;99719.30;;;4.65;100.00
56992;BME280;42885;49.754;18.636;2022-11-13T07:44:38;99717.04;;;4.74;100.00
56992;BME280;42885;49.754;18.636;2022-11-13T07:47:26;99712.13;;;4.86;100.00
56992;BME280;42885;49.754;18.636;2022-11-13T07:50:15;99719.84;;;4.91;100.00
56992;BME280;42885;49.754;18.636;2022-11-13T07:53:06;99718.89;;;5.26;100.00
56992;BME280;42885;49.754;18.636;2022-11-13T07:55:58;99721.64;;;5.45;100.00
56992;BME280;42885;49.754;18.636;2022-11-13T07:58:45;99719.52;;;5.69;100.00
56992;BME280;42885;49.754;18.636;2022-11-13T08:01:34;99722.08;;;6.21;100.00
56992;BME280;42885;49.754;18.636;2022-11-13T08:04:23;99717.18;;;6.28;100.00
56992;BME280;42885;49.754;18.636;2022-11-13T08:07:12;99723.12;;;6.33;100.00
56992;BME280;42885;49.754;18.636;2022-11-13T08:10:01;99722.80;;;6.51;100.00
56992;BME280;42885;49.754;18.636;2022-11-13T08:12:56;99723.67;;;6.72;100.00
56992;BME280;42885;49.754;18.636;2022-11-13T08:15:41;99720.94;;;6.98;100.00
56992;BME280;42885;49.754;18.636;2022-11-13T08:18:30;99722.80;;;6.92;100.00
56992;BME280;42885;49.754;18.636;2022-11-13T08:21:19;99729.55;;;7.20;100.00
56992;BME280;42885;49.754;18.636;2022-11-13T08:24:09;99726.42;;;7.24;100.00
56992;BME280;42885;49.754;18.636;2022-11-13T08:26:57;99731.03;;;7.50;100.00
56992;BME280;42885;49.754;18.636;2022-11-13T08:29:46;99728.22;;;7.58;100.00
56992;BME280;42885;49.754;18.636;2022-11-13T08:32:35;99724.92;;;7.69;100.00
56992;BME280;42885;49.754;18.636;2022-11-13T08:35:24;99720.91;;;7.91;100.00
56992;BME280;42885;49.754;18.636;2022-11-13T08:38:12;99719.53;;;8.09;100.00
56992;BME280;42885;49.754;18.636;2022-11-13T08:41:03;99720.78;;;8.12;100.00
56992;BME280;42885;49.754;18.636;2022-11-13T08:43:52;99711.58;;;8.47;100.00
56992;BME280;42885;49.754;18.636;2022-11-13T08:46:40;99708.82;;;8.68;100.00
56992;BME280;42885;49.754;18.636;2022-11-13T08:49:29;99705.38;;;8.66;100.00
56992;BME280;42885;49.754;18.636;2022-11-13T08:52:18;99704.47;;;8.67;100.00
56992;BME280;42885;49.754;18.636;2022-11-13T08:55:06;99705.86;;;8.79;100.00
56992;BME280;42885;49.754;18.636;2022-11-13T08:58:02;99714.18;;;8.92;100.00
56992;BME280;42885;49.754;18.636;2022-11-13T09:00:46;99725.97;;;9.05;100.00
56992;BME280;42885;49.754;18.636;2022-11-13T09:03:36;99717.47;;;9.27;100.00
56992;BME280;42885;49.754;18.636;2022-11-13T09:06:25;99720.77;;;9.32;100.00
56992;BME280;42885;49.754;18.636;2022-11-13T09:09:13;99712.84;;;9.49;100.00
56992;BME280;42885;49.754;18.636;2022-11-13T09:12:03;99707.98;;;9.90;100.00
56992;BME280;42885;49.754;18.636;2022-11-13T09:14:52;99719.25;;;10.30;100.00
56992;BME280;42885;49.754;18.636;2022-11-13T09:17:40;99714.70;;;10.23;100.00
56992;BME280;42885;49.754;18.636;2022-11-13T09:20:30;99713.94;;;10.45;100.00
56992;BME280;42885;49.754;18.636;2022-11-13T09:23:20;99709.92;;;10.35;100.00
56992;BME280;42885;49.754;18.636;2022-11-13T09:26:08;99712.41;;;10.51;100.00
56992;BME280;42885;49.754;18.636;2022-11-13T09:28:57;99717.03;;;10.68;100.00
56992;BME280;42885;49.754;18.636;2022-11-13T09:31:46;99712.52;;;10.84;100.00
56992;BME280;42885;49.754;18.636;2022-11-13T09:34:35;99700.41;;;11.04;100.00
56992;BME280;42885;49.754;18.636;2022-11-13T09:37:23;99697.14;;;11.31;100.00
56992;BME280;42885;49.754;18.636;2022-11-13T09:40:15;99700.24;;;11.19;100.00
56992;BME280;42885;49.754;18.636;2022-11-13T09:43:08;99700.24;;;11.19;100.00
56992;BME280;42885;49.754;18.636;2022-11-13T09:45:59;99701.56;;;11.51;100.00
56992;BME280;42885;49.754;18.636;2022-11-13T09:48:53;99700.26;;;11.51;100.00
56992;BME280;42885;49.754;18.636;2022-11-13T09:51:50;99702.02;;;11.61;100.00
56992;BME280;42885;49.754;18.636;2022-11-13T09:54:38;99697.73;;;11.70;100.00
56992;BME280;42885;49.754;18.636;2022-11-13T09:57:38;99695.83;;;12.05;100.00
56992;BME280;42885;49.754;18.636;2022-11-13T10:00:24;99697.12;;;12.16;100.00
56992;BME280;42885;49.754;18.636;2022-11-13T10:03:37;99689.78;;;12.43;100.00
56992;BME280;42885;49.754;18.636;2022-11-13T10:06:47;99683.16;;;12.45;100.00
56992;BME280;42885;49.754;18.636;2022-11-13T10:12:21;99685.05;;;12.71;100.00
56992;BME280;42885;49.754;18.636;2022-11-13T10:15:10;99679.72;;;12.91;100.00
56992;BME280;42885;49.754;18.636;2022-11-13T10:18:10;99672.92;;;12.96;100.00
56992;BME280;42885;49.754;18.636;2022-11-13T10:20:56;99661.99;;;12.86;100.00
56992;BME280;42885;49.754;18.636;2022-11-13T10:23:49;99664.56;;;12.97;100.00
56992;BME280;42885;49.754;18.636;2022-11-13T10:26:37;99654.64;;;14.00;100.00
56992;BME280;42885;49.754;18.636;2022-11-13T10:29:27;99657.70;;;13.57;100.00
56992;BME280;42885;49.754;18.636;2022-11-13T10:32:50;99651.93;;;13.40;100.00
56992;BME280;42885;49.754;18.636;2022-11-13T10:35:43;99651.80;;;13.79;100.00
56992;BME280;42885;49.754;18.636;2022-11-13T10:38:45;99655.00;;;13.59;100.00
56992;BME280;42885;49.754;18.636;2022-11-13T10:41:43;99650.91;;;14.04;100.00
56992;BME280;42885;49.754;18.636;2022-11-13T10:44:28;99650.52;;;14.03;100.00
56992;BME280;42885;49.754;18.636;2022-11-13T10:47:18;99650.84;;;14.31;100.00
56992;BME280;42885;49.754;18.636;2022-11-13T10:50:13;99644.43;;;14.60;100.00
56992;BME280;42885;49.754;18.636;2022-11-13T10:53:01;99643.31;;;14.73;100.00
56992;BME280;42885;49.754;18.636;2022-11-13T10:55:54;99635.10;;;14.70;97.83
56992;BME280;42885;49.754;18.636;2022-11-13T10:58:42;99631.72;;;14.84;96.72
56992;BME280;42885;49.754;18.636;2022-11-13T11:01:31;99629.50;;;14.93;96.17
56992;BME280;42885;49.754;18.636;2022-11-13T11:04:25;99631.53;;;15.04;95.32
56992;BME280;42885;49.754;18.636;2022-11-13T11:07:21;99634.63;;;15.79;91.00
56992;BME280;42885;49.754;18.636;2022-11-13T11:10:34;99626.06;;;18.02;72.63
56992;BME280;42885;49.754;18.636;2022-11-13T11:13:24;99608.75;;;18.54;67.77
56992;BME280;42885;49.754;18.636;2022-11-13T11:16:18;99620.95;;;18.57;66.40
56992;BME280;42885;49.754;18.636;2022-11-13T11:19:09;99619.40;;;17.38;71.43
56992;BME280;42885;49.754;18.636;2022-11-13T11:22:18;99619.19;;;17.87;71.39
56992;BME280;42885;49.754;18.636;2022-11-13T11:28:10;99618.66;;;17.36;73.02
56992;BME280;42885;49.754;18.636;2022-11-13T11:31:09;99616.22;;;17.92;73.49
56992;BME280;42885;49.754;18.636;2022-11-13T11:34:11;99602.17;;;18.84;67.28
56992;BME280;42885;49.754;18.636;2022-11-13T11:39:57;99586.63;;;20.37;58.80
56992;BME280;42885;49.754;18.636;2022-11-13T11:43:04;99586.35;;;20.46;56.77
56992;BME280;42885;49.754;18.636;2022-11-13T11:45:51;99583.18;;;21.71;54.16
56992;BME280;42885;49.754;18.636;2022-11-13T11:48:40;99581.19;;;21.37;55.60
56992;BME280;42885;49.754;18.636;2022-11-13T11:51:43;99578.77;;;20.47;56.21
56992;BME280;42885;49.754;18.636;2022-11-13T11:54:40;99573.00;;;20.69;54.53
56992;BME280;42885;49.754;18.636;2022-11-13T12:00:50;99564.97;;;21.55;50.64
56992;BME280;42885;49.754;18.636;2022-11-13T12:03:50;99564.59;;;22.07;48.84
56992;BME280;42885;49.754;18.636;2022-11-13T12:16:03;99550.47;;;22.00;48.12
56992;BME280;42885;49.754;18.636;2022-11-13T12:19:09;99553.50;;;21.70;49.78
56992;BME280;42885;49.754;18.636;2022-11-13T12:28:13;99551.39;;;19.72;59.02
56992;BME280;42885;49.754;18.636;2022-11-13T12:37:14;99532.02;;;16.58;83.81
56992;BME280;42885;49.754;18.636;2022-11-13T12:40:06;99529.27;;;16.32;86.16
56992;BME280;42885;49.754;18.636;2022-11-13T12:46:12;99521.36;;;17.33;79.16
56992;BME280;42885;49.754;18.636;2022-11-13T12:49:02;99512.44;;;18.05;73.73
56992;BME280;42885;49.754;18.636;2022-11-13T12:52:01;99516.38;;;17.42;76.44
56992;BME280;42885;49.754;18.636;2022-11-13T12:54:47;99517.80;;;16.74;81.06
56992;BME280;42885;49.754;18.636;2022-11-13T12:57:45;99514.21;;;16.27;88.28
56992;BME280;42885;49.754;18.636;2022-11-13T13:00:29;99512.80;;;16.14;90.89
56992;BME280;42885;49.754;18.636;2022-11-13T13:03:32;99506.89;;;16.38;92.99
56992;BME280;42885;49.754;18.636;2022-11-13T13:09:48;99504.78;;;16.91;83.87
56992;BME280;42885;49.754;18.636;2022-11-13T13:16:00;99491.20;;;16.90;83.19
56992;BME280;42885;49.754;18.636;2022-11-13T13:18:50;99480.26;;;18.41;77.25
56992;BME280;42885;49.754;18.636;2022-11-13T13:21:41;99477.52;;;20.33;64.41
56992;BME280;42885;49.754;18.636;2022-11-13T13:24:35;99476.16;;;20.71;59.17
56992;BME280;42885;49.754;18.636;2022-11-13T13:27:27;99482.91;;;19.93;60.79
56992;BME280;42885;49.754;18.636;2022-11-13T13:30:19;99478.89;;;18.66;69.84
56992;BME280;42885;49.754;18.636;2022-11-13T13:36:21;99482.29;;;16.78;81.14
56992;BME280;42885;49.754;18.636;2022-11-13T13:39:31;99479.26;;;16.09;91.77
56992;BME280;42885;49.754;18.636;2022-11-13T13:42:29;99481.67;;;16.47;90.72
56992;BME280;42885;49.754;18.636;2022-11-13T13:45:35;99478.01;;;16.15;92.50
56992;BME280;42885;49.754;18.636;2022-11-13T13:48:24;99477.80;;;16.18;99.62
56992;BME280;42885;49.754;18.636;2022-11-13T13:54:26;99487.76;;;14.51;100.00
56992;BME280;42885;49.754;18.636;2022-11-13T13:57:10;99488.93;;;14.22;100.00
56992;BME280;42885;49.754;18.636;2022-11-13T13:59:58;99484.97;;;13.83;100.00
56992;BME280;42885;49.754;18.636;2022-11-13T14:02:49;99489.36;;;13.66;100.00
56992;BME280;42885;49.754;18.636;2022-11-13T14:05:37;99480.35;;;13.45;100.00
56992;BME280;42885;49.754;18.636;2022-11-13T14:08:26;99480.49;;;13.42;100.00
56992;BME280;42885;49.754;18.636;2022-11-13T14:11:21;99474.17;;;13.29;100.00
56992;BME280;42885;49.754;18.636;2022-11-13T14:14:20;99473.96;;;13.16;100.00
56992;BME280;42885;49.754;18.636;2022-11-13T14:17:10;99468.39;;;13.13;100.00
56992;BME280;42885;49.754;18.636;2022-11-13T14:19:59;99473.98;;;12.89;100.00
56992;BME280;42885;49.754;18.636;2022-11-13T14:22:50;99469.95;;;12.82;100.00
56992;BME280;42885;49.754;18.636;2022-11-13T14:25:39;99471.27;;;12.64;100.00
56992;BME280;42885;49.754;18.636;2022-11-13T14:28:41;99470.58;;;12.52;100.00
56992;BME280;42885;49.754;18.636;2022-11-13T14:31:25;99465.70;;;12.35;100.00
56992;BME280;42885;49.754;18.636;2022-11-13T14:34:18;99464.29;;;12.28;100.00
56992;BME280;42885;49.754;18.636;2022-11-13T14:37:15;99460.09;;;12.24;100.00
56992;BME280;42885;49.754;18.636;2022-11-13T14:40:26;99464.03;;;12.15;100.00
56992;BME280;42885;49.754;18.636;2022-11-13T14:43:02;99455.42;;;12.03;100.00
56992;BME280;42885;49.754;18.636;2022-11-13T14:45:56;99453.36;;;11.71;100.00
56992;BME280;42885;49.754;18.636;2022-11-13T14:48:54;99454.50;;;11.65;100.00
56992;BME280;42885;49.754;18.636;2022-11-13T14:51:52;99454.54;;;11.45;100.00
56992;BME280;42885;49.754;18.636;2022-11-13T14:54:37;99456.75;;;11.35;100.00
56992;BME280;42885;49.754;18.636;2022-11-13T14:57:26;99447.33;;;11.20;100.00
56992;BME280;42885;49.754;18.636;2022-11-13T15:00:18;99450.61;;;11.25;100.00
56992;BME280;42885;49.754;18.636;2022-11-13T15:03:08;99447.34;;;11.10;100.00
56992;BME280;42885;49.754;18.636;2022-11-13T15:05:57;99448.27;;;11.09;100.00
56992;BME280;42885;49.754;18.636;2022-11-13T15:08:47;99456.60;;;10.87;100.00
56992;BME280;42885;49.754;18.636;2022-11-13T15:11:37;99456.90;;;10.90;100.00
56992;BME280;42885;49.754;18.636;2022-11-13T15:14:27;99454.38;;;10.88;100.00
56992;BME280;42885;49.754;18.636;2022-11-13T15:17:17;99443.48;;;10.77;100.00
56992;BME280;42885;49.754;18.636;2022-11-13T15:20:13;99452.84;;;10.72;100.00
56992;BME280;42885;49.754;18.636;2022-11-13T15:22:59;99454.53;;;10.53;100.00
56992;BME280;42885;49.754;18.636;2022-11-13T15:25:47;99446.50;;;10.35;100.00
56992;BME280;42885;49.754;18.636;2022-11-13T15:28:36;99444.06;;;10.42;100.00
56992;BME280;42885;49.754;18.636;2022-11-13T15:31:30;99449.17;;;10.33;100.00
56992;BME280;42885;49.754;18.636;2022-11-13T15:34:19;99447.73;;;10.14;100.00
56992;BME280;42885;49.754;18.636;2022-11-13T15:37:15;99445.08;;;10.16;100.00
56992;BME280;42885;49.754;18.636;2022-11-13T15:40:04;99455.02;;;9.96;100.00
56992;BME280;42885;49.754;18.636;2022-11-13T15:42:53;99443.19;;;9.97;100.00